CheckWX is a tool to help pilots better visualize weather data.  It is not intended as a substitute for an official pre-flight weather briefing.

00:53:09 UTC

ENSK METAR
Stokmarknes Skagen Airport
Hadsel, Norway
Current

11 hours ago

ENSK 231350Z 19013KT 9999 6000NE -SHSNRA FEW010 SCT015 BKN020 02/00 Q0977
Observed
Mar-23 @ 13:50 UTC
Wind
  • 190° at 13 KTS
Visibility
10,000+ meters
Flight Rules
MVFR
Conditions
Light Snow, Rain
Cloud Levels
  • Few at 1,000' AGL
  • Scattered at 1,500' AGL
  • Broken at 2,000' AGL
Temperature
C / 36°F
Dewpoint
C / 32°F
Humidity
87%
Altimeter
28.85" Hg
Pressure
976.92 hPa
Previous

12 hours ago

ENSK 231320Z 19014G28KT 8000 SHRASNGS FEW014CB SCT017 BKN020 02/M00 Q0978
Observed
Mar-23 @ 13:20 UTC
Wind
  • 190° at 14 KTS
  • Gusting to 28 KTS
Visibility
7,998 meters
Flight Rules
MVFR
Conditions
Rain, Snow, Small hail
Cloud Levels
  • Few at 1,400' AGL
  • Scattered at 1,700' AGL
  • Broken at 2,000' AGL
Temperature
C / 36°F
Dewpoint
C / 32°F
Humidity
87%
Altimeter
28.88" Hg
Pressure
977.92 hPa
Previous

13 hours ago

ENSK 231220Z 17018KT 9999 VCSH FEW014 SCT022 BKN029 03/M00 Q0978
Observed
Mar-23 @ 12:20 UTC
Wind
  • 170° at 18 KTS
Visibility
10,000+ meters
Flight Rules
MVFR
Cloud Levels
  • Few at 1,400' AGL
  • Scattered at 2,200' AGL
  • Broken at 2,900' AGL
Temperature
C / 37°F
Dewpoint
C / 32°F
Humidity
81%
Altimeter
28.88" Hg
Pressure
977.92 hPa